sensor_id;sensor_type;location;lat;lon;timestamp;temperature;humidity
10312;DHT22;5201;48.776;9.128;2022-10-31T00:00:59;15.30;99.90
10312;DHT22;5201;48.776;9.128;2022-10-31T00:03:24;15.30;99.90
10312;DHT22;5201;48.776;9.128;2022-10-31T00:05:51;15.30;99.90
10312;DHT22;5201;48.776;9.128;2022-10-31T00:08:17;15.50;99.90
10312;DHT22;5201;48.776;9.128;2022-10-31T00:10:44;15.50;99.90
10312;DHT22;5201;48.776;9.128;2022-10-31T00:13:11;15.50;99.90
10312;DHT22;5201;48.776;9.128;2022-10-31T00:15:38;15.50;99.90
10312;DHT22;5201;48.776;9.128;2022-10-31T00:18:05;15.40;99.90
10312;DHT22;5201;48.776;9.128;2022-10-31T00:20:32;15.30;99.90
10312;DHT22;5201;48.776;9.128;2022-10-31T00:22:58;15.90;99.90
10312;DHT22;5201;48.776;9.128;2022-10-31T00:25:25;15.50;99.90
10312;DHT22;5201;48.776;9.128;2022-10-31T00:27:51;15.50;99.90
10312;DHT22;5201;48.776;9.128;2022-10-31T00:30:16;15.50;99.90
10312;DHT22;5201;48.776;9.128;2022-10-31T00:32:42;15.60;99.90
10312;DHT22;5201;48.776;9.128;2022-10-31T00:35:08;15.50;99.90
10312;DHT22;5201;48.776;9.128;2022-10-31T00:37:33;16.10;99.90
10312;DHT22;5201;48.776;9.128;2022-10-31T00:39:59;16.50;99.90
10312;DHT22;5201;48.776;9.128;2022-10-31T00:42:25;15.30;99.90
10312;DHT22;5201;48.776;9.128;2022-10-31T00:44:50;15.50;99.90
10312;DHT22;5201;48.776;9.128;2022-10-31T00:47:16;15.80;99.90
10312;DHT22;5201;48.776;9.128;2022-10-31T00:49:41;15.20;99.90
10312;DHT22;5201;48.776;9.128;2022-10-31T00:52:07;15.10;99.90
10312;DHT22;5201;48.776;9.128;2022-10-31T00:54:33;15.00;99.90
10312;DHT22;5201;48.776;9.128;2022-10-31T00:56:58;15.00;99.90
10312;DHT22;5201;48.776;9.128;2022-10-31T00:59:24;15.00;99.90
10312;DHT22;5201;48.776;9.128;2022-10-31T01:01:49;15.20;99.90
10312;DHT22;5201;48.776;9.128;2022-10-31T01:04:15;15.20;99.90
10312;DHT22;5201;48.776;9.128;2022-10-31T01:06:41;15.10;99.90
10312;DHT22;5201;48.776;9.128;2022-10-31T01:09:06;15.00;99.90
10312;DHT22;5201;48.776;9.128;2022-10-31T01:11:32;15.20;99.90
10312;DHT22;5201;48.776;9.128;2022-10-31T01:13:57;15.40;99.90
10312;DHT22;5201;48.776;9.128;2022-10-31T01:16:25;15.30;99.90
10312;DHT22;5201;48.776;9.128;2022-10-31T01:18:51;15.40;99.90
10312;DHT22;5201;48.776;9.128;2022-10-31T01:21:20;15.40;99.90
10312;DHT22;5201;48.776;9.128;2022-10-31T01:23:46;15.10;99.90
10312;DHT22;5201;48.776;9.128;2022-10-31T01:26:18;15.00;99.90
10312;DHT22;5201;48.776;9.128;2022-10-31T01:28:48;15.10;99.90
10312;DHT22;5201;48.776;9.128;2022-10-31T01:31:15;15.20;99.90
10312;DHT22;5201;48.776;9.128;2022-10-31T01:33:41;15.40;99.90
10312;DHT22;5201;48.776;9.128;2022-10-31T01:36:28;15.50;99.90
10312;DHT22;5201;48.776;9.128;2022-10-31T01:38:56;15.60;99.90
10312;DHT22;5201;48.776;9.128;2022-10-31T01:41:24;15.60;99.90
10312;DHT22;5201;48.776;9.128;2022-10-31T01:44:02;15.60;99.90
10312;DHT22;5201;48.776;9.128;2022-10-31T01:46:33;15.60;99.90
10312;DHT22;5201;48.776;9.128;2022-10-31T01:49:01;15.50;99.90
10312;DHT22;5201;48.776;9.128;2022-10-31T01:51:31;15.40;99.90
10312;DHT22;5201;48.776;9.128;2022-10-31T01:54:02;15.50;99.90
10312;DHT22;5201;48.776;9.128;2022-10-31T01:56:30;15.30;99.90
10312;DHT22;5201;48.776;9.128;2022-10-31T01:58:57;16.10;99.90
10312;DHT22;5201;48.776;9.128;2022-10-31T02:01:25;15.30;99.90
10312;DHT22;5201;48.776;9.128;2022-10-31T02:03:51;15.40;99.90
10312;DHT22;5201;48.776;9.128;2022-10-31T02:06:37;15.40;99.90
10312;DHT22;5201;48.776;9.128;2022-10-31T02:09:05;15.20;99.90
10312;DHT22;5201;48.776;9.128;2022-10-31T02:11:31;15.00;99.90
10312;DHT22;5201;48.776;9.128;2022-10-31T02:13:59;15.00;99.90
10312;DHT22;5201;48.776;9.128;2022-10-31T02:16:25;15.10;99.90
10312;DHT22;5201;48.776;9.128;2022-10-31T02:18:51;15.10;99.90
10312;DHT22;5201;48.776;9.128;2022-10-31T02:24:03;15.40;99.90
10312;DHT22;5201;48.776;9.128;2022-10-31T02:34:58;15.20;99.90
10312;DHT22;5201;48.776;9.128;2022-10-31T02:40:33;15.30;99.90
10312;DHT22;5201;48.776;9.128;2022-10-31T02:48:33;14.90;99.90
10312;DHT22;5201;48.776;9.128;2022-10-31T02:51:02;14.90;99.90
10312;DHT22;5201;48.776;9.128;2022-10-31T02:53:37;14.80;99.90
10312;DHT22;5201;48.776;9.128;2022-10-31T02:56:13;14.90;99.90
10312;DHT22;5201;48.776;9.128;2022-10-31T02:58:51;14.70;99.90
10312;DHT22;5201;48.776;9.128;2022-10-31T03:01:44;14.80;99.90
10312;DHT22;5201;48.776;9.128;2022-10-31T03:05:09;14.90;99.90
10312;DHT22;5201;48.776;9.128;2022-10-31T03:10:58;14.80;99.90
10312;DHT22;5201;48.776;9.128;2022-10-31T03:13:50;14.80;99.90
10312;DHT22;5201;48.776;9.128;2022-10-31T03:19:09;14.60;99.90
10312;DHT22;5201;48.776;9.128;2022-10-31T03:21:50;14.70;99.90
10312;DHT22;5201;48.776;9.128;2022-10-31T03:24:21;14.70;99.90
10312;DHT22;5201;48.776;9.128;2022-10-31T03:26:52;14.90;99.90
10312;DHT22;5201;48.776;9.128;2022-10-31T03:29:22;15.00;99.90
10312;DHT22;5201;48.776;9.128;2022-10-31T03:32:00;14.90;99.90
10312;DHT22;5201;48.776;9.128;2022-10-31T03:34:28;14.70;99.90
10312;DHT22;5201;48.776;9.128;2022-10-31T03:36:57;14.60;99.90
10312;DHT22;5201;48.776;9.128;2022-10-31T03:39:24;14.60;99.90
10312;DHT22;5201;48.776;9.128;2022-10-31T03:42:05;14.60;99.90
10312;DHT22;5201;48.776;9.128;2022-10-31T03:44:31;14.80;99.90
10312;DHT22;5201;48.776;9.128;2022-10-31T03:46:57;14.60;99.90
10312;DHT22;5201;48.776;9.128;2022-10-31T03:49:23;14.60;99.90
10312;DHT22;5201;48.776;9.128;2022-10-31T03:51:55;14.50;99.90
10312;DHT22;5201;48.776;9.128;2022-10-31T03:54:42;14.40;99.90
10312;DHT22;5201;48.776;9.128;2022-10-31T03:59:47;14.50;99.90
10312;DHT22;5201;48.776;9.128;2022-10-31T04:02:16;14.40;99.90
10312;DHT22;5201;48.776;9.128;2022-10-31T04:04:44;14.70;99.90
10312;DHT22;5201;48.776;9.128;2022-10-31T04:07:11;14.20;99.90
10312;DHT22;5201;48.776;9.128;2022-10-31T04:09:43;14.40;99.90
10312;DHT22;5201;48.776;9.128;2022-10-31T04:12:12;14.30;99.90
10312;DHT22;5201;48.776;9.128;2022-10-31T04:14:41;14.20;99.90
10312;DHT22;5201;48.776;9.128;2022-10-31T04:17:11;14.20;99.90
10312;DHT22;5201;48.776;9.128;2022-10-31T04:19:37;14.30;99.90
10312;DHT22;5201;48.776;9.128;2022-10-31T04:22:03;15.00;99.90
10312;DHT22;5201;48.776;9.128;2022-10-31T04:24:28;14.40;99.90
10312;DHT22;5201;48.776;9.128;2022-10-31T04:26:54;14.60;99.90
10312;DHT22;5201;48.776;9.128;2022-10-31T04:29:19;14.50;99.90
10312;DHT22;5201;48.776;9.128;2022-10-31T04:31:45;14.50;99.90
10312;DHT22;5201;48.776;9.128;2022-10-31T04:34:10;14.90;99.90
10312;DHT22;5201;48.776;9.128;2022-10-31T04:36:36;14.50;99.90
10312;DHT22;5201;48.776;9.128;2022-10-31T04:39:02;14.60;99.90
10312;DHT22;5201;48.776;9.128;2022-10-31T04:41:27;14.40;99.90
10312;DHT22;5201;48.776;9.128;2022-10-31T04:43:54;14.20;99.90
10312;DHT22;5201;48.776;9.128;2022-10-31T04:46:19;14.10;99.90
10312;DHT22;5201;48.776;9.128;2022-10-31T04:48:45;14.50;99.90
10312;DHT22;5201;48.776;9.128;2022-10-31T04:51:10;14.40;99.90
10312;DHT22;5201;48.776;9.128;2022-10-31T04:53:36;14.90;99.90
10312;DHT22;5201;48.776;9.128;2022-10-31T04:56:02;14.40;99.90
10312;DHT22;5201;48.776;9.128;2022-10-31T04:58:27;14.20;99.90
10312;DHT22;5201;48.776;9.128;2022-10-31T05:00:54;14.40;99.90
10312;DHT22;5201;48.776;9.128;2022-10-31T05:03:20;14.60;99.90
10312;DHT22;5201;48.776;9.128;2022-10-31T05:05:46;14.60;99.90
10312;DHT22;5201;48.776;9.128;2022-10-31T05:08:12;14.40;99.90
10312;DHT22;5201;48.776;9.128;2022-10-31T05:10:37;14.40;99.90
10312;DHT22;5201;48.776;9.128;2022-10-31T05:13:03;14.60;99.90
10312;DHT22;5201;48.776;9.128;2022-10-31T05:15:30;14.20;99.90
10312;DHT22;5201;48.776;9.128;2022-10-31T05:17:56;14.20;99.90
10312;DHT22;5201;48.776;9.128;2022-10-31T05:20:25;14.20;99.90
10312;DHT22;5201;48.776;9.128;2022-10-31T05:22:52;14.40;99.90
10312;DHT22;5201;48.776;9.128;2022-10-31T05:25:20;15.10;99.90
10312;DHT22;5201;48.776;9.128;2022-10-31T05:27:48;14.40;99.90
10312;DHT22;5201;48.776;9.128;2022-10-31T05:30:17;14.50;99.90
10312;DHT22;5201;48.776;9.128;2022-10-31T05:32:45;14.60;99.90
10312;DHT22;5201;48.776;9.128;2022-10-31T05:35:18;14.60;99.90
10312;DHT22;5201;48.776;9.128;2022-10-31T05:37:44;14.40;99.90
10312;DHT22;5201;48.776;9.128;2022-10-31T05:40:12;14.50;99.90
10312;DHT22;5201;48.776;9.128;2022-10-31T05:42:41;14.40;99.90
10312;DHT22;5201;48.776;9.128;2022-10-31T05:45:09;14.30;99.90
10312;DHT22;5201;48.776;9.128;2022-10-31T05:47:35;14.30;99.90
10312;DHT22;5201;48.776;9.128;2022-10-31T05:50:00;14.40;99.90
10312;DHT22;5201;48.776;9.128;2022-10-31T05:52:26;14.20;99.90
10312;DHT22;5201;48.776;9.128;2022-10-31T05:54:51;14.30;99.90
10312;DHT22;5201;48.776;9.128;2022-10-31T05:57:17;14.20;99.90
10312;DHT22;5201;48.776;9.128;2022-10-31T05:59:43;14.50;99.90
10312;DHT22;5201;48.776;9.128;2022-10-31T06:02:08;14.30;99.90
10312;DHT22;5201;48.776;9.128;2022-10-31T06:04:34;15.10;99.90
10312;DHT22;5201;48.776;9.128;2022-10-31T06:06:59;14.50;99.90
10312;DHT22;5201;48.776;9.128;2022-10-31T06:09:25;14.60;99.90
10312;DHT22;5201;48.776;9.128;2022-10-31T06:11:50;14.50;99.90
10312;DHT22;5201;48.776;9.128;2022-10-31T06:14:16;15.20;99.90
10312;DHT22;5201;48.776;9.128;2022-10-31T06:16:42;14.50;99.90
10312;DHT22;5201;48.776;9.128;2022-10-31T06:19:07;14.60;99.90
10312;DHT22;5201;48.776;9.128;2022-10-31T06:21:33;14.80;99.90
10312;DHT22;5201;48.776;9.128;2022-10-31T06:23:58;14.60;99.90
10312;DHT22;5201;48.776;9.128;2022-10-31T06:26:24;14.70;99.90
10312;DHT22;5201;48.776;9.128;2022-10-31T06:28:49;14.50;99.90
10312;DHT22;5201;48.776;9.128;2022-10-31T06:31:15;14.30;99.90
10312;DHT22;5201;48.776;9.128;2022-10-31T06:33:41;14.40;99.90
10312;DHT22;5201;48.776;9.128;2022-10-31T06:36:07;14.40;99.90
10312;DHT22;5201;48.776;9.128;2022-10-31T06:38:33;14.10;99.90
10312;DHT22;5201;48.776;9.128;2022-10-31T06:41:02;14.80;99.90
10312;DHT22;5201;48.776;9.128;2022-10-31T06:43:28;13.80;99.90
10312;DHT22;5201;48.776;9.128;2022-10-31T06:45:54;13.90;99.90
10312;DHT22;5201;48.776;9.128;2022-10-31T06:48:19;14.00;99.90
10312;DHT22;5201;48.776;9.128;2022-10-31T06:50:45;14.10;99.90
10312;DHT22;5201;48.776;9.128;2022-10-31T06:53:11;14.00;99.90
10312;DHT22;5201;48.776;9.128;2022-10-31T06:55:36;14.00;99.90
10312;DHT22;5201;48.776;9.128;2022-10-31T06:58:02;14.20;99.90
10312;DHT22;5201;48.776;9.128;2022-10-31T07:00:29;14.10;99.90
10312;DHT22;5201;48.776;9.128;2022-10-31T07:02:58;14.10;99.90
10312;DHT22;5201;48.776;9.128;2022-10-31T07:05:25;14.00;99.90
10312;DHT22;5201;48.776;9.128;2022-10-31T07:07:56;13.90;99.90
10312;DHT22;5201;48.776;9.128;2022-10-31T07:10:23;13.90;99.90
10312;DHT22;5201;48.776;9.128;2022-10-31T07:12:57;13.90;99.90
10312;DHT22;5201;48.776;9.128;2022-10-31T07:15:23;13.90;99.90
10312;DHT22;5201;48.776;9.128;2022-10-31T07:17:49;13.80;99.90
10312;DHT22;5201;48.776;9.128;2022-10-31T07:20:15;13.90;99.90
10312;DHT22;5201;48.776;9.128;2022-10-31T07:22:41;13.90;99.90
10312;DHT22;5201;48.776;9.128;2022-10-31T07:25:07;13.90;99.90
10312;DHT22;5201;48.776;9.128;2022-10-31T07:27:40;13.90;99.90
10312;DHT22;5201;48.776;9.128;2022-10-31T07:30:07;14.00;99.90
10312;DHT22;5201;48.776;9.128;2022-10-31T07:32:49;14.10;99.90
10312;DHT22;5201;48.776;9.128;2022-10-31T07:35:20;14.20;99.90
10312;DHT22;5201;48.776;9.128;2022-10-31T07:37:47;14.20;99.90
10312;DHT22;5201;48.776;9.128;2022-10-31T07:40:14;14.20;99.90
10312;DHT22;5201;48.776;9.128;2022-10-31T07:42:44;14.30;99.90
10312;DHT22;5201;48.776;9.128;2022-10-31T07:45:12;14.20;99.90
10312;DHT22;5201;48.776;9.128;2022-10-31T07:50:08;14.40;99.90
10312;DHT22;5201;48.776;9.128;2022-10-31T07:52:34;14.40;99.90
10312;DHT22;5201;48.776;9.128;2022-10-31T07:55:00;14.50;99.90
10312;DHT22;5201;48.776;9.128;2022-10-31T07:57:25;14.40;99.90
10312;DHT22;5201;48.776;9.128;2022-10-31T07:59:51;14.50;99.90
10312;DHT22;5201;48.776;9.128;2022-10-31T08:02:16;14.50;99.90
10312;DHT22;5201;48.776;9.128;2022-10-31T08:04:42;14.60;99.90
10312;DHT22;5201;48.776;9.128;2022-10-31T08:07:08;14.60;99.90
10312;DHT22;5201;48.776;9.128;2022-10-31T08:09:33;14.70;99.90
10312;DHT22;5201;48.776;9.128;2022-10-31T08:11:59;14.70;99.90
10312;DHT22;5201;48.776;9.128;2022-10-31T08:14:24;17.20;99.90
10312;DHT22;5201;48.776;9.128;2022-10-31T08:16:51;15.00;99.90
10312;DHT22;5201;48.776;9.128;2022-10-31T08:19:17;15.00;99.90
10312;DHT22;5201;48.776;9.128;2022-10-31T08:21:42;15.10;99.90
10312;DHT22;5201;48.776;9.128;2022-10-31T08:24:08;15.20;99.90
10312;DHT22;5201;48.776;9.128;2022-10-31T08:26:34;15.10;99.90
10312;DHT22;5201;48.776;9.128;2022-10-31T08:28:59;15.00;99.90
10312;DHT22;5201;48.776;9.128;2022-10-31T08:31:27;14.90;99.90
10312;DHT22;5201;48.776;9.128;2022-10-31T08:33:53;15.10;99.90
10312;DHT22;5201;48.776;9.128;2022-10-31T08:36:19;14.80;99.90
10312;DHT22;5201;48.776;9.128;2022-10-31T08:38:46;14.90;99.90
10312;DHT22;5201;48.776;9.128;2022-10-31T08:41:12;15.10;99.90
10312;DHT22;5201;48.776;9.128;2022-10-31T08:43:38;15.20;99.90
10312;DHT22;5201;48.776;9.128;2022-10-31T08:46:03;15.60;99.90
10312;DHT22;5201;48.776;9.128;2022-10-31T08:48:29;15.30;99.90
10312;DHT22;5201;48.776;9.128;2022-10-31T08:50:56;15.40;99.90
10312;DHT22;5201;48.776;9.128;2022-10-31T08:53:23;15.40;99.90
10312;DHT22;5201;48.776;9.128;2022-10-31T08:55:49;15.60;99.90
10312;DHT22;5201;48.776;9.128;2022-10-31T08:58:17;15.50;99.90
10312;DHT22;5201;48.776;9.128;2022-10-31T09:00:44;15.40;99.90
10312;DHT22;5201;48.776;9.128;2022-10-31T09:03:21;15.30;99.90
10312;DHT22;5201;48.776;9.128;2022-10-31T09:05:47;15.20;99.90
10312;DHT22;5201;48.776;9.128;2022-10-31T09:08:13;15.40;99.90
10312;DHT22;5201;48.776;9.128;2022-10-31T09:10:39;16.00;99.90
10312;DHT22;5201;48.776;9.128;2022-10-31T09:13:09;15.50;99.90
10312;DHT22;5201;48.776;9.128;2022-10-31T09:15:37;16.00;99.90
10312;DHT22;5201;48.776;9.128;2022-10-31T09:18:06;15.80;99.90
10312;DHT22;5201;48.776;9.128;2022-10-31T09:20:34;15.80;99.90
10312;DHT22;5201;48.776;9.128;2022-10-31T09:23:05;16.00;99.90
10312;DHT22;5201;48.776;9.128;2022-10-31T09:25:32;16.00;99.90
10312;DHT22;5201;48.776;9.128;2022-10-31T09:28:00;16.00;99.90
10312;DHT22;5201;48.776;9.128;2022-10-31T09:30:27;16.30;99.90
10312;DHT22;5201;48.776;9.128;2022-10-31T09:33:03;16.10;99.90
10312;DHT22;5201;48.776;9.128;2022-10-31T09:35:30;16.00;99.90
10312;DHT22;5201;48.776;9.128;2022-10-31T09:37:57;15.90;99.90
10312;DHT22;5201;48.776;9.128;2022-10-31T09:40:43;16.10;99.90
10312;DHT22;5201;48.776;9.128;2022-10-31T09:43:24;16.00;99.90
10312;DHT22;5201;48.776;9.128;2022-10-31T09:46:23;16.00;99.90
10312;DHT22;5201;48.776;9.128;2022-10-31T09:49:21;16.10;99.90
10312;DHT22;5201;48.776;9.128;2022-10-31T09:52:08;16.30;99.90
10312;DHT22;5201;48.776;9.128;2022-10-31T09:57:27;16.30;99.90
10312;DHT22;5201;48.776;9.128;2022-10-31T09:59:53;16.40;99.90
10312;DHT22;5201;48.776;9.128;2022-10-31T10:02:25;16.40;99.90
10312;DHT22;5201;48.776;9.128;2022-10-31T10:05:10;17.00;99.90
10312;DHT22;5201;48.776;9.128;2022-10-31T10:16:03;16.60;99.90
10312;DHT22;5201;48.776;9.128;2022-10-31T10:18:52;16.70;99.90
10312;DHT22;5201;48.776;9.128;2022-10-31T10:21:25;16.70;99.90
10312;DHT22;5201;48.776;9.128;2022-10-31T10:24:17;16.80;99.90
10312;DHT22;5201;48.776;9.128;2022-10-31T10:29:37;17.10;99.90
10312;DHT22;5201;48.776;9.128;2022-10-31T10:32:13;17.20;99.90
10312;DHT22;5201;48.776;9.128;2022-10-31T10:34:52;17.20;99.90
10312;DHT22;5201;48.776;9.128;2022-10-31T10:37:30;17.10;99.90
10312;DHT22;5201;48.776;9.128;2022-10-31T10:42:40;17.30;99.90
10312;DHT22;5201;48.776;9.128;2022-10-31T10:45:24;17.40;99.90
10312;DHT22;5201;48.776;9.128;2022-10-31T10:48:16;17.20;99.90
10312;DHT22;5201;48.776;9.128;2022-10-31T10:50:50;17.20;99.90
10312;DHT22;5201;48.776;9.128;2022-10-31T10:54:18;17.30;99.90
10312;DHT22;5201;48.776;9.128;2022-10-31T10:56:45;17.60;99.90
10312;DHT22;5201;48.776;9.128;2022-10-31T10:59:19;17.60;99.90
10312;DHT22;5201;48.776;9.128;2022-10-31T11:01:46;17.60;99.90
10312;DHT22;5201;48.776;9.128;2022-10-31T11:07:03;17.70;99.90
10312;DHT22;5201;48.776;9.128;2022-10-31T11:09:29;17.70;99.90
10312;DHT22;5201;48.776;9.128;2022-10-31T11:11:55;17.70;99.90
10312;DHT22;5201;48.776;9.128;2022-10-31T11:14:22;17.80;99.90
10312;DHT22;5201;48.776;9.128;2022-10-31T11:16:52;17.70;99.90
10312;DHT22;5201;48.776;9.128;2022-10-31T11:21:47;17.60;99.90
10312;DHT22;5201;48.776;9.128;2022-10-31T11:24:21;17.70;99.90
10312;DHT22;5201;48.776;9.128;2022-10-31T11:26:48;18.30;99.90
10312;DHT22;5201;48.776;9.128;2022-10-31T11:31:43;18.10;99.90
10312;DHT22;5201;48.776;9.128;2022-10-31T11:34:28;18.00;99.90
10312;DHT22;5201;48.776;9.128;2022-10-31T11:37:02;17.90;99.90
10312;DHT22;5201;48.776;9.128;2022-10-31T11:39:28;17.80;99.90
10312;DHT22;5201;48.776;9.128;2022-10-31T11:41:55;18.00;99.90
10312;DHT22;5201;48.776;9.128;2022-10-31T11:44:27;18.00;99.90
10312;DHT22;5201;48.776;9.128;2022-10-31T11:47:05;18.10;99.90
10312;DHT22;5201;48.776;9.128;2022-10-31T11:49:42;18.20;99.90
10312;DHT22;5201;48.776;9.128;2022-10-31T11:52:23;18.10;99.90
10312;DHT22;5201;48.776;9.128;2022-10-31T11:57:32;18.00;99.90
10312;DHT22;5201;48.776;9.128;2022-10-31T12:00:00;18.00;99.90
10312;DHT22;5201;48.776;9.128;2022-10-31T12:02:26;18.10;99.90
10312;DHT22;5201;48.776;9.128;2022-10-31T12:05:17;18.30;99.90
10312;DHT22;5201;48.776;9.128;2022-10-31T12:07:45;18.50;99.90
10312;DHT22;5201;48.776;9.128;2022-10-31T12:10:12;18.40;99.90
10312;DHT22;5201;48.776;9.128;2022-10-31T12:15:34;18.20;99.90
10312;DHT22;5201;48.776;9.128;2022-10-31T12:20:48;18.50;99.90
10312;DHT22;5201;48.776;9.128;2022-10-31T12:26:37;18.30;99.90
10312;DHT22;5201;48.776;9.128;2022-10-31T12:29:15;18.50;99.90
10312;DHT22;5201;48.776;9.128;2022-10-31T12:40:29;18.70;99.90
10312;DHT22;5201;48.776;9.128;2022-10-31T12:45:55;18.50;99.90
10312;DHT22;5201;48.776;9.128;2022-10-31T12:48:43;18.60;99.90
10312;DHT22;5201;48.776;9.128;2022-10-31T12:59:48;18.60;99.90
10312;DHT22;5201;48.776;9.128;2022-10-31T13:02:34;18.60;99.90
10312;DHT22;5201;48.776;9.128;2022-10-31T13:07:45;18.40;99.90
10312;DHT22;5201;48.776;9.128;2022-10-31T13:10:22;18.40;99.90
10312;DHT22;5201;48.776;9.128;2022-10-31T13:12:51;18.30;99.90
10312;DHT22;5201;48.776;9.128;2022-10-31T13:15:22;18.20;99.90
10312;DHT22;5201;48.776;9.128;2022-10-31T13:17:56;18.20;99.90
10312;DHT22;5201;48.776;9.128;2022-10-31T13:25:47;18.20;99.90
10312;DHT22;5201;48.776;9.128;2022-10-31T13:28:40;18.10;99.90
10312;DHT22;5201;48.776;9.128;2022-10-31T13:31:08;18.10;99.90
10312;DHT22;5201;48.776;9.128;2022-10-31T13:33:39;18.20;99.90
10312;DHT22;5201;48.776;9.128;2022-10-31T13:36:36;18.20;99.90
10312;DHT22;5201;48.776;9.128;2022-10-31T13:39:22;18.20;99.90
10312;DHT22;5201;48.776;9.128;2022-10-31T13:41:59;18.40;99.90
10312;DHT22;5201;48.776;9.128;2022-10-31T13:44:28;18.50;99.90
10312;DHT22;5201;48.776;9.128;2022-10-31T13:46:57;18.60;99.90
10312;DHT22;5201;48.776;9.128;2022-10-31T13:49:37;18.70;99.90
10312;DHT22;5201;48.776;9.128;2022-10-31T13:54:36;19.30;99.90
10312;DHT22;5201;48.776;9.128;2022-10-31T13:57:07;18.90;99.90
10312;DHT22;5201;48.776;9.128;2022-10-31T13:59:37;18.80;99.90
10312;DHT22;5201;48.776;9.128;2022-10-31T14:02:15;18.60;99.90
10312;DHT22;5201;48.776;9.128;2022-10-31T14:04:56;18.50;99.90
10312;DHT22;5201;48.776;9.128;2022-10-31T14:07:24;18.50;99.90
10312;DHT22;5201;48.776;9.128;2022-10-31T14:15:39;18.50;99.90
10312;DHT22;5201;48.776;9.128;2022-10-31T14:17:57;18.50;99.90
10312;DHT22;5201;48.776;9.128;2022-10-31T14:20:26;18.40;99.90
10312;DHT22;5201;48.776;9.128;2022-10-31T14:22:56;18.40;99.90
10312;DHT22;5201;48.776;9.128;2022-10-31T14:25:29;18.30;99.90
10312;DHT22;5201;48.776;9.128;2022-10-31T14:27:56;18.20;99.90
10312;DHT22;5201;48.776;9.128;2022-10-31T14:30:23;18.60;99.90
10312;DHT22;5201;48.776;9.128;2022-10-31T14:32:58;18.20;99.90
10312;DHT22;5201;48.776;9.128;2022-10-31T14:35:36;18.30;99.90
10312;DHT22;5201;48.776;9.128;2022-10-31T14:38:11;18.30;99.90
10312;DHT22;5201;48.776;9.128;2022-10-31T14:51:45;18.20;99.90
10312;DHT22;5201;48.776;9.128;2022-10-31T14:54:19;18.10;99.90
10312;DHT22;5201;48.776;9.128;2022-10-31T14:56:53;18.10;99.90
10312;DHT22;5201;48.776;9.128;2022-10-31T14:59:28;18.10;99.90
10312;DHT22;5201;48.776;9.128;2022-10-31T15:02:18;18.00;99.90
10312;DHT22;5201;48.776;9.128;2022-10-31T15:04:46;18.00;99.90
10312;DHT22;5201;48.776;9.128;2022-10-31T15:07:21;18.00;99.90
10312;DHT22;5201;48.776;9.128;2022-10-31T15:09:56;18.00;99.90
10312;DHT22;5201;48.776;9.128;2022-10-31T15:12:25;18.00;99.90
10312;DHT22;5201;48.776;9.128;2022-10-31T15:14:51;18.00;99.90
10312;DHT22;5201;48.776;9.128;2022-10-31T15:17:17;18.00;99.90
10312;DHT22;5201;48.776;9.128;2022-10-31T15:19:43;18.00;99.90
10312;DHT22;5201;48.776;9.128;2022-10-31T15:22:21;18.00;99.90
10312;DHT22;5201;48.776;9.128;2022-10-31T15:24:48;17.80;99.90
10312;DHT22;5201;48.776;9.128;2022-10-31T15:27:18;17.70;99.90
10312;DHT22;5201;48.776;9.128;2022-10-31T15:29:51;17.70;99.90
10312;DHT22;5201;48.776;9.128;2022-10-31T15:32:26;17.60;99.90
10312;DHT22;5201;48.776;9.128;2022-10-31T15:34:53;17.60;99.90
10312;DHT22;5201;48.776;9.128;2022-10-31T15:37:21;17.50;99.90
10312;DHT22;5201;48.776;9.128;2022-10-31T15:39:48;17.80;99.90
10312;DHT22;5201;48.776;9.128;2022-10-31T15:42:20;17.40;99.90
10312;DHT22;5201;48.776;9.128;2022-10-31T15:44:50;17.40;99.90
10312;DHT22;5201;48.776;9.128;2022-10-31T15:47:20;17.30;99.90
10312;DHT22;5201;48.776;9.128;2022-10-31T15:49:57;17.30;99.90
10312;DHT22;5201;48.776;9.128;2022-10-31T15:55:00;17.20;99.90
10312;DHT22;5201;48.776;9.128;2022-10-31T15:57:27;17.30;99.90
10312;DHT22;5201;48.776;9.128;2022-10-31T15:59:53;17.20;99.90
10312;DHT22;5201;48.776;9.128;2022-10-31T16:02:25;17.60;99.90
10312;DHT22;5201;48.776;9.128;2022-10-31T16:07:21;17.20;99.90
10312;DHT22;5201;48.776;9.128;2022-10-31T16:09:54;17.10;99.90
10312;DHT22;5201;48.776;9.128;2022-10-31T16:12:22;17.10;99.90
10312;DHT22;5201;48.776;9.128;2022-10-31T16:14:50;16.90;99.90
10312;DHT22;5201;48.776;9.128;2022-10-31T16:17:17;16.90;99.90
10312;DHT22;5201;48.776;9.128;2022-10-31T16:19:58;16.90;99.90
10312;DHT22;5201;48.776;9.128;2022-10-31T16:22:31;16.90;99.90
10312;DHT22;5201;48.776;9.128;2022-10-31T16:25:28;16.80;99.90
10312;DHT22;5201;48.776;9.128;2022-10-31T16:28:04;16.60;99.90
10312;DHT22;5201;48.776;9.128;2022-10-31T16:30:45;16.60;99.90
10312;DHT22;5201;48.776;9.128;2022-10-31T16:33:32;16.50;99.90
10312;DHT22;5201;48.776;9.128;2022-10-31T16:36:00;16.50;99.90
10312;DHT22;5201;48.776;9.128;2022-10-31T16:38:28;16.50;99.90
10312;DHT22;5201;48.776;9.128;2022-10-31T16:40:54;16.60;99.90
10312;DHT22;5201;48.776;9.128;2022-10-31T16:43:20;16.60;99.90
10312;DHT22;5201;48.776;9.128;2022-10-31T16:45:52;16.40;99.90
10312;DHT22;5201;48.776;9.128;2022-10-31T16:48:20;16.30;99.90
10312;DHT22;5201;48.776;9.128;2022-10-31T16:50:49;16.30;99.90
10312;DHT22;5201;48.776;9.128;2022-10-31T16:53:16;16.40;99.90
10312;DHT22;5201;48.776;9.128;2022-10-31T16:56:02;16.40;99.90
10312;DHT22;5201;48.776;9.128;2022-10-31T16:58:32;16.20;99.90
10312;DHT22;5201;48.776;9.128;2022-10-31T17:01:00;16.20;99.90
10312;DHT22;5201;48.776;9.128;2022-10-31T17:03:26;16.30;99.90
10312;DHT22;5201;48.776;9.128;2022-10-31T17:05:52;16.00;99.90
10312;DHT22;5201;48.776;9.128;2022-10-31T17:08:20;16.00;99.90
10312;DHT22;5201;48.776;9.128;2022-10-31T17:10:47;16.00;99.90
10312;DHT22;5201;48.776;9.128;2022-10-31T17:13:27;15.80;99.90
10312;DHT22;5201;48.776;9.128;2022-10-31T17:15:56;15.80;99.90
10312;DHT22;5201;48.776;9.128;2022-10-31T17:18:23;15.70;99.90
10312;DHT22;5201;48.776;9.128;2022-10-31T17:20:49;15.80;99.90
10312;DHT22;5201;48.776;9.128;2022-10-31T17:23:16;15.70;99.90
10312;DHT22;5201;48.776;9.128;2022-10-31T17:25:42;15.80;99.90
10312;DHT22;5201;48.776;9.128;2022-10-31T17:28:14;15.90;99.90
10312;DHT22;5201;48.776;9.128;2022-10-31T17:30:41;15.90;99.90
10312;DHT22;5201;48.776;9.128;2022-10-31T17:33:13;15.80;99.90
10312;DHT22;5201;48.776;9.128;2022-10-31T17:35:43;15.70;99.90
10312;DHT22;5201;48.776;9.128;2022-10-31T17:38:11;15.60;99.90
10312;DHT22;5201;48.776;9.128;2022-10-31T17:40:38;15.60;99.90
10312;DHT22;5201;48.776;9.128;2022-10-31T17:43:04;15.60;99.90
10312;DHT22;5201;48.776;9.128;2022-10-31T17:45:30;15.60;99.90
10312;DHT22;5201;48.776;9.128;2022-10-31T17:47:56;15.60;99.90
10312;DHT22;5201;48.776;9.128;2022-10-31T17:50:23;15.50;99.90
10312;DHT22;5201;48.776;9.128;2022-10-31T17:52:50;13.60;99.90
10312;DHT22;5201;48.776;9.128;2022-10-31T17:55:16;15.50;99.90
10312;DHT22;5201;48.776;9.128;2022-10-31T17:57:42;15.30;99.90
10312;DHT22;5201;48.776;9.128;2022-10-31T18:00:11;15.20;99.90
10312;DHT22;5201;48.776;9.128;2022-10-31T18:02:37;15.10;99.90